sensor_id;sensor_type;location;lat;lon;timestamp;temperature;humidity
20670;DHT22;10494;50.868;4.180;2023-03-01T00:01:07;1.10;99.90
20670;DHT22;10494;50.868;4.180;2023-03-01T00:03:33;1.00;99.90
20670;DHT22;10494;50.868;4.180;2023-03-01T00:05:59;1.10;99.90
20670;DHT22;10494;50.868;4.180;2023-03-01T00:08:26;1.10;99.90
20670;DHT22;10494;50.868;4.180;2023-03-01T00:11:16;1.20;99.90
20670;DHT22;10494;50.868;4.180;2023-03-01T00:13:43;1.20;99.90
20670;DHT22;10494;50.868;4.180;2023-03-01T00:16:11;1.20;99.90
20670;DHT22;10494;50.868;4.180;2023-03-01T00:18:38;1.20;99.90
20670;DHT22;10494;50.868;4.180;2023-03-01T00:21:04;1.20;99.90
20670;DHT22;10494;50.868;4.180;2023-03-01T00:23:31;1.20;99.90
20670;DHT22;10494;50.868;4.180;2023-03-01T00:25:57;1.20;99.90
20670;DHT22;10494;50.868;4.180;2023-03-01T00:28:22;1.20;99.90
20670;DHT22;10494;50.868;4.180;2023-03-01T00:30:48;1.20;99.90
20670;DHT22;10494;50.868;4.180;2023-03-01T00:33:14;1.10;99.90
20670;DHT22;10494;50.868;4.180;2023-03-01T00:35:39;1.10;99.90
20670;DHT22;10494;50.868;4.180;2023-03-01T00:38:06;1.00;99.90
20670;DHT22;10494;50.868;4.180;2023-03-01T00:40:33;1.00;99.90
20670;DHT22;10494;50.868;4.180;2023-03-01T00:42:59;0.90;99.90
20670;DHT22;10494;50.868;4.180;2023-03-01T00:45:25;0.90;99.90
20670;DHT22;10494;50.868;4.180;2023-03-01T00:47:51;0.90;99.90
20670;DHT22;10494;50.868;4.180;2023-03-01T00:50:18;0.80;99.90
20670;DHT22;10494;50.868;4.180;2023-03-01T00:52:44;0.80;99.90
20670;DHT22;10494;50.868;4.180;2023-03-01T00:55:10;0.90;99.90
20670;DHT22;10494;50.868;4.180;2023-03-01T00:57:36;0.90;99.90
20670;DHT22;10494;50.868;4.180;2023-03-01T01:00:03;0.90;99.90
20670;DHT22;10494;50.868;4.180;2023-03-01T01:02:29;0.90;99.90
20670;DHT22;10494;50.868;4.180;2023-03-01T01:04:57;0.90;99.90
20670;DHT22;10494;50.868;4.180;2023-03-01T01:07:22;0.90;99.90
20670;DHT22;10494;50.868;4.180;2023-03-01T01:09:48;0.90;99.90
20670;DHT22;10494;50.868;4.180;2023-03-01T01:12:13;0.70;99.90
20670;DHT22;10494;50.868;4.180;2023-03-01T01:14:39;0.80;99.90
20670;DHT22;10494;50.868;4.180;2023-03-01T01:17:05;0.70;99.90
20670;DHT22;10494;50.868;4.180;2023-03-01T01:19:30;0.80;99.90
20670;DHT22;10494;50.868;4.180;2023-03-01T01:21:56;0.70;99.90
20670;DHT22;10494;50.868;4.180;2023-03-01T01:24:22;0.70;99.90
20670;DHT22;10494;50.868;4.180;2023-03-01T01:26:48;0.70;99.90
20670;DHT22;10494;50.868;4.180;2023-03-01T01:29:14;0.70;99.90
20670;DHT22;10494;50.868;4.180;2023-03-01T01:31:40;0.70;99.90
20670;DHT22;10494;50.868;4.180;2023-03-01T01:34:09;0.70;99.90
20670;DHT22;10494;50.868;4.180;2023-03-01T01:36:37;0.60;99.90
20670;DHT22;10494;50.868;4.180;2023-03-01T01:39:03;0.60;99.90
20670;DHT22;10494;50.868;4.180;2023-03-01T01:41:29;0.60;99.90
20670;DHT22;10494;50.868;4.180;2023-03-01T01:46:47;0.70;99.90
20670;DHT22;10494;50.868;4.180;2023-03-01T01:49:46;0.60;99.90
20670;DHT22;10494;50.868;4.180;2023-03-01T01:52:24;0.70;99.90
20670;DHT22;10494;50.868;4.180;2023-03-01T01:57:30;0.80;99.90
20670;DHT22;10494;50.868;4.180;2023-03-01T02:00:03;0.80;99.90
20670;DHT22;10494;50.868;4.180;2023-03-01T02:02:29;0.90;99.90
20670;DHT22;10494;50.868;4.180;2023-03-01T02:05:06;0.90;99.90
20670;DHT22;10494;50.868;4.180;2023-03-01T02:07:38;0.90;99.90
20670;DHT22;10494;50.868;4.180;2023-03-01T02:10:04;0.90;99.90
20670;DHT22;10494;50.868;4.180;2023-03-01T02:12:31;0.80;99.90
20670;DHT22;10494;50.868;4.180;2023-03-01T02:14:57;0.70;99.90
20670;DHT22;10494;50.868;4.180;2023-03-01T02:17:23;0.70;99.90
20670;DHT22;10494;50.868;4.180;2023-03-01T02:22:30;0.60;99.90
20670;DHT22;10494;50.868;4.180;2023-03-01T02:27:42;0.60;99.90
20670;DHT22;10494;50.868;4.180;2023-03-01T02:30:12;0.70;99.90
20670;DHT22;10494;50.868;4.180;2023-03-01T02:32:40;0.60;99.90
20670;DHT22;10494;50.868;4.180;2023-03-01T02:35:12;0.60;99.90
20670;DHT22;10494;50.868;4.180;2023-03-01T02:37:39;0.60;99.90
20670;DHT22;10494;50.868;4.180;2023-03-01T02:40:12;0.60;99.90
20670;DHT22;10494;50.868;4.180;2023-03-01T02:42:58;0.60;99.90
20670;DHT22;10494;50.868;4.180;2023-03-01T02:45:25;0.60;99.90
20670;DHT22;10494;50.868;4.180;2023-03-01T02:47:54;0.60;99.90
20670;DHT22;10494;50.868;4.180;2023-03-01T02:55:41;0.50;99.90
20670;DHT22;10494;50.868;4.180;2023-03-01T02:58:07;0.50;99.90
20670;DHT22;10494;50.868;4.180;2023-03-01T03:00:36;0.50;99.90
20670;DHT22;10494;50.868;4.180;2023-03-01T03:03:06;0.40;99.90
20670;DHT22;10494;50.868;4.180;2023-03-01T03:05:32;0.40;99.90
20670;DHT22;10494;50.868;4.180;2023-03-01T03:08:00;0.40;99.90
20670;DHT22;10494;50.868;4.180;2023-03-01T03:10:27;0.40;99.90
20670;DHT22;10494;50.868;4.180;2023-03-01T03:13:02;0.40;99.90
20670;DHT22;10494;50.868;4.180;2023-03-01T03:15:28;0.30;99.90
20670;DHT22;10494;50.868;4.180;2023-03-01T03:17:55;0.00;99.90
20670;DHT22;10494;50.868;4.180;2023-03-01T03:20:24;-0.10;99.90
20670;DHT22;10494;50.868;4.180;2023-03-01T03:22:52;-0.10;99.90
20670;DHT22;10494;50.868;4.180;2023-03-01T03:25:19;-0.10;99.90
20670;DHT22;10494;50.868;4.180;2023-03-01T03:27:47;-0.20;99.90
20670;DHT22;10494;50.868;4.180;2023-03-01T03:30:15;-0.20;99.90
20670;DHT22;10494;50.868;4.180;2023-03-01T03:32:43;-0.20;99.90
20670;DHT22;10494;50.868;4.180;2023-03-01T03:35:23;-0.20;99.90
20670;DHT22;10494;50.868;4.180;2023-03-01T03:37:51;-0.20;99.90
20670;DHT22;10494;50.868;4.180;2023-03-01T03:40:39;-0.20;99.90
20670;DHT22;10494;50.868;4.180;2023-03-01T03:43:12;-0.20;99.90
20670;DHT22;10494;50.868;4.180;2023-03-01T03:45:38;-0.20;99.90
20670;DHT22;10494;50.868;4.180;2023-03-01T03:48:05;-0.30;99.90
20670;DHT22;10494;50.868;4.180;2023-03-01T03:50:31;-0.30;99.90
20670;DHT22;10494;50.868;4.180;2023-03-01T03:52:57;-0.30;99.90
20670;DHT22;10494;50.868;4.180;2023-03-01T03:55:25;-0.40;99.90
20670;DHT22;10494;50.868;4.180;2023-03-01T03:57:57;-0.30;99.90
20670;DHT22;10494;50.868;4.180;2023-03-01T04:00:23;-0.30;99.90
20670;DHT22;10494;50.868;4.180;2023-03-01T04:02:49;-0.30;99.90
20670;DHT22;10494;50.868;4.180;2023-03-01T04:05:16;-0.40;99.90
20670;DHT22;10494;50.868;4.180;2023-03-01T04:07:43;-0.40;99.90
20670;DHT22;10494;50.868;4.180;2023-03-01T04:10:12;-0.40;99.90
20670;DHT22;10494;50.868;4.180;2023-03-01T04:12:38;-0.40;99.90
20670;DHT22;10494;50.868;4.180;2023-03-01T04:15:05;-0.30;99.90
20670;DHT22;10494;50.868;4.180;2023-03-01T04:17:43;-0.30;99.90
20670;DHT22;10494;50.868;4.180;2023-03-01T04:20:14;-0.30;99.90
20670;DHT22;10494;50.868;4.180;2023-03-01T04:22:42;-0.40;99.90
20670;DHT22;10494;50.868;4.180;2023-03-01T04:25:09;-0.40;99.90
20670;DHT22;10494;50.868;4.180;2023-03-01T04:27:35;-0.40;99.90
20670;DHT22;10494;50.868;4.180;2023-03-01T04:30:02;-0.40;99.90
20670;DHT22;10494;50.868;4.180;2023-03-01T04:32:27;-0.40;99.90
20670;DHT22;10494;50.868;4.180;2023-03-01T04:34:53;-0.40;99.90
20670;DHT22;10494;50.868;4.180;2023-03-01T04:37:19;-0.40;99.90
20670;DHT22;10494;50.868;4.180;2023-03-01T04:39:44;-0.40;99.90
20670;DHT22;10494;50.868;4.180;2023-03-01T04:42:13;-0.30;99.90
20670;DHT22;10494;50.868;4.180;2023-03-01T04:44:39;-0.30;99.90
20670;DHT22;10494;50.868;4.180;2023-03-01T04:47:05;-0.10;99.90
20670;DHT22;10494;50.868;4.180;2023-03-01T04:49:31;-0.20;99.90
20670;DHT22;10494;50.868;4.180;2023-03-01T04:51:57;-0.40;99.90
20670;DHT22;10494;50.868;4.180;2023-03-01T04:54:27;-0.50;99.90
20670;DHT22;10494;50.868;4.180;2023-03-01T04:56:53;-0.50;99.90
20670;DHT22;10494;50.868;4.180;2023-03-01T04:59:19;-0.60;99.90
20670;DHT22;10494;50.868;4.180;2023-03-01T05:01:51;-0.60;99.90
20670;DHT22;10494;50.868;4.180;2023-03-01T05:04:16;-0.70;99.90
20670;DHT22;10494;50.868;4.180;2023-03-01T05:06:42;-0.70;99.90
20670;DHT22;10494;50.868;4.180;2023-03-01T05:09:07;-0.70;99.90
20670;DHT22;10494;50.868;4.180;2023-03-01T05:11:33;-0.70;99.90
20670;DHT22;10494;50.868;4.180;2023-03-01T05:14:01;-0.70;99.90
20670;DHT22;10494;50.868;4.180;2023-03-01T05:16:27;-0.80;99.90
20670;DHT22;10494;50.868;4.180;2023-03-01T05:18:53;-0.70;99.90
20670;DHT22;10494;50.868;4.180;2023-03-01T05:21:20;-0.80;99.90
20670;DHT22;10494;50.868;4.180;2023-03-01T05:23:46;-0.80;99.90
20670;DHT22;10494;50.868;4.180;2023-03-01T05:26:12;-0.80;99.90
20670;DHT22;10494;50.868;4.180;2023-03-01T05:28:38;-0.80;99.90
20670;DHT22;10494;50.868;4.180;2023-03-01T05:31:05;-0.80;99.90
20670;DHT22;10494;50.868;4.180;2023-03-01T05:33:40;-0.80;99.90
20670;DHT22;10494;50.868;4.180;2023-03-01T05:36:08;-0.80;99.90
20670;DHT22;10494;50.868;4.180;2023-03-01T05:38:35;-0.80;99.90
20670;DHT22;10494;50.868;4.180;2023-03-01T05:41:01;-0.80;99.90
20670;DHT22;10494;50.868;4.180;2023-03-01T05:43:31;-0.90;99.90
20670;DHT22;10494;50.868;4.180;2023-03-01T05:45:59;-0.80;99.90
20670;DHT22;10494;50.868;4.180;2023-03-01T05:48:25;-0.80;99.90
20670;DHT22;10494;50.868;4.180;2023-03-01T05:50:51;-0.80;99.90
20670;DHT22;10494;50.868;4.180;2023-03-01T05:53:19;-0.80;99.90
20670;DHT22;10494;50.868;4.180;2023-03-01T05:55:46;-0.70;99.90
20670;DHT22;10494;50.868;4.180;2023-03-01T05:58:18;-0.70;99.90
20670;DHT22;10494;50.868;4.180;2023-03-01T06:00:45;-0.60;99.90
20670;DHT22;10494;50.868;4.180;2023-03-01T06:03:13;-0.60;99.90
20670;DHT22;10494;50.868;4.180;2023-03-01T06:05:39;-0.70;99.90
20670;DHT22;10494;50.868;4.180;2023-03-01T06:08:06;-0.50;99.90
20670;DHT22;10494;50.868;4.180;2023-03-01T06:10:32;-0.50;99.90
20670;DHT22;10494;50.868;4.180;2023-03-01T06:12:57;-0.50;99.90
20670;DHT22;10494;50.868;4.180;2023-03-01T06:15:24;-0.50;99.90
20670;DHT22;10494;50.868;4.180;2023-03-01T06:17:50;-0.40;99.90
20670;DHT22;10494;50.868;4.180;2023-03-01T06:20:21;-0.50;99.90
20670;DHT22;10494;50.868;4.180;2023-03-01T06:22:48;-0.50;99.90
20670;DHT22;10494;50.868;4.180;2023-03-01T06:25:17;-0.40;99.90
20670;DHT22;10494;50.868;4.180;2023-03-01T06:27:44;-0.40;99.90
20670;DHT22;10494;50.868;4.180;2023-03-01T06:30:12;-0.40;99.90
20670;DHT22;10494;50.868;4.180;2023-03-01T06:32:41;-0.40;99.90
20670;DHT22;10494;50.868;4.180;2023-03-01T06:35:14;-0.40;99.90
20670;DHT22;10494;50.868;4.180;2023-03-01T06:37:42;-0.50;99.90
20670;DHT22;10494;50.868;4.180;2023-03-01T06:40:09;-0.40;99.90
20670;DHT22;10494;50.868;4.180;2023-03-01T06:42:37;-0.40;99.90
20670;DHT22;10494;50.868;4.180;2023-03-01T06:45:05;-0.40;99.90
20670;DHT22;10494;50.868;4.180;2023-03-01T06:47:31;-0.40;99.90
20670;DHT22;10494;50.868;4.180;2023-03-01T06:49:58;-0.40;99.90
20670;DHT22;10494;50.868;4.180;2023-03-01T06:52:24;-0.30;99.90
20670;DHT22;10494;50.868;4.180;2023-03-01T06:54:50;-0.30;99.90
20670;DHT22;10494;50.868;4.180;2023-03-01T06:57:15;-0.30;99.90
20670;DHT22;10494;50.868;4.180;2023-03-01T06:59:41;-0.20;99.90
20670;DHT22;10494;50.868;4.180;2023-03-01T07:02:08;-0.10;99.90
20670;DHT22;10494;50.868;4.180;2023-03-01T07:04:34;0.00;99.90
20670;DHT22;10494;50.868;4.180;2023-03-01T07:07:00;0.10;99.90
20670;DHT22;10494;50.868;4.180;2023-03-01T07:09:26;0.20;99.90
20670;DHT22;10494;50.868;4.180;2023-03-01T07:11:51;0.20;99.90
20670;DHT22;10494;50.868;4.180;2023-03-01T07:14:17;0.30;99.90
20670;DHT22;10494;50.868;4.180;2023-03-01T07:16:45;0.30;99.90
20670;DHT22;10494;50.868;4.180;2023-03-01T07:19:10;0.50;99.90
20670;DHT22;10494;50.868;4.180;2023-03-01T07:21:36;0.60;99.90
20670;DHT22;10494;50.868;4.180;2023-03-01T07:24:07;0.80;99.90
20670;DHT22;10494;50.868;4.180;2023-03-01T07:26:32;1.00;99.90
20670;DHT22;10494;50.868;4.180;2023-03-01T07:29:03;1.10;99.90
20670;DHT22;10494;50.868;4.180;2023-03-01T07:31:29;1.60;99.90
20670;DHT22;10494;50.868;4.180;2023-03-01T07:33:55;2.10;99.90
20670;DHT22;10494;50.868;4.180;2023-03-01T07:36:21;2.60;99.90
20670;DHT22;10494;50.868;4.180;2023-03-01T07:38:46;2.60;99.90
20670;DHT22;10494;50.868;4.180;2023-03-01T07:41:12;2.30;99.90
20670;DHT22;10494;50.868;4.180;2023-03-01T07:43:38;1.60;99.90
20670;DHT22;10494;50.868;4.180;2023-03-01T07:46:03;1.40;99.90
20670;DHT22;10494;50.868;4.180;2023-03-01T07:48:30;1.40;99.90
20670;DHT22;10494;50.868;4.180;2023-03-01T07:51:04;1.90;99.90
20670;DHT22;10494;50.868;4.180;2023-03-01T07:53:30;2.90;99.90
20670;DHT22;10494;50.868;4.180;2023-03-01T07:56:12;4.00;99.90
20670;DHT22;10494;50.868;4.180;2023-03-01T07:58:40;4.30;99.90
20670;DHT22;10494;50.868;4.180;2023-03-01T08:01:08;4.70;99.90
20670;DHT22;10494;50.868;4.180;2023-03-01T08:03:35;4.80;99.90
20670;DHT22;10494;50.868;4.180;2023-03-01T08:06:02;5.70;99.90
20670;DHT22;10494;50.868;4.180;2023-03-01T08:08:28;6.80;99.90
20670;DHT22;10494;50.868;4.180;2023-03-01T08:10:58;7.40;99.90
20670;DHT22;10494;50.868;4.180;2023-03-01T08:13:24;7.90;99.90
20670;DHT22;10494;50.868;4.180;2023-03-01T08:15:49;8.40;99.90
20670;DHT22;10494;50.868;4.180;2023-03-01T08:18:16;8.80;99.90
20670;DHT22;10494;50.868;4.180;2023-03-01T08:20:42;9.10;99.90
20670;DHT22;10494;50.868;4.180;2023-03-01T08:23:08;8.70;99.90
20670;DHT22;10494;50.868;4.180;2023-03-01T08:25:33;7.40;99.90
20670;DHT22;10494;50.868;4.180;2023-03-01T08:27:59;8.50;99.90
20670;DHT22;10494;50.868;4.180;2023-03-01T08:30:26;9.40;99.90
20670;DHT22;10494;50.868;4.180;2023-03-01T08:32:51;8.10;99.90
20670;DHT22;10494;50.868;4.180;2023-03-01T08:35:17;8.40;99.90
20670;DHT22;10494;50.868;4.180;2023-03-01T08:37:44;7.40;99.90
20670;DHT22;10494;50.868;4.180;2023-03-01T08:40:10;8.00;99.90
20670;DHT22;10494;50.868;4.180;2023-03-01T08:42:36;7.40;99.90
20670;DHT22;10494;50.868;4.180;2023-03-01T08:45:06;8.00;99.90
20670;DHT22;10494;50.868;4.180;2023-03-01T08:47:31;8.60;99.90
20670;DHT22;10494;50.868;4.180;2023-03-01T08:49:59;9.20;99.90
20670;DHT22;10494;50.868;4.180;2023-03-01T08:52:25;9.30;98.40
20670;DHT22;10494;50.868;4.180;2023-03-01T08:54:51;8.70;97.90
20670;DHT22;10494;50.868;4.180;2023-03-01T08:57:17;9.10;99.90
20670;DHT22;10494;50.868;4.180;2023-03-01T08:59:42;9.40;99.10
20670;DHT22;10494;50.868;4.180;2023-03-01T09:02:16;7.60;98.80
20670;DHT22;10494;50.868;4.180;2023-03-01T09:04:43;5.50;99.90
20670;DHT22;10494;50.868;4.180;2023-03-01T09:07:10;5.50;99.90
20670;DHT22;10494;50.868;4.180;2023-03-01T09:09:36;6.40;99.90
20670;DHT22;10494;50.868;4.180;2023-03-01T09:12:03;7.30;99.90
20670;DHT22;10494;50.868;4.180;2023-03-01T09:14:28;7.00;99.90
20670;DHT22;10494;50.868;4.180;2023-03-01T09:16:54;7.20;99.90
20670;DHT22;10494;50.868;4.180;2023-03-01T09:19:19;7.50;99.90
20670;DHT22;10494;50.868;4.180;2023-03-01T09:21:45;7.10;99.90
20670;DHT22;10494;50.868;4.180;2023-03-01T09:24:22;7.50;99.90
20670;DHT22;10494;50.868;4.180;2023-03-01T09:26:49;7.50;99.90
20670;DHT22;10494;50.868;4.180;2023-03-01T09:29:16;7.60;99.90
20670;DHT22;10494;50.868;4.180;2023-03-01T09:31:42;7.40;99.90
20670;DHT22;10494;50.868;4.180;2023-03-01T09:34:08;7.60;99.90
20670;DHT22;10494;50.868;4.180;2023-03-01T09:36:34;8.20;99.90
20670;DHT22;10494;50.868;4.180;2023-03-01T09:39:00;8.90;98.30
20670;DHT22;10494;50.868;4.180;2023-03-01T09:46:48;9.30;95.30
20670;DHT22;10494;50.868;4.180;2023-03-01T09:49:27;9.80;94.30
20670;DHT22;10494;50.868;4.180;2023-03-01T09:52:23;9.00;96.10
20670;DHT22;10494;50.868;4.180;2023-03-01T09:54:54;8.70;95.50
20670;DHT22;10494;50.868;4.180;2023-03-01T09:57:50;9.10;95.60
20670;DHT22;10494;50.868;4.180;2023-03-01T10:10:52;7.80;98.40
20670;DHT22;10494;50.868;4.180;2023-03-01T10:13:43;8.50;96.50
20670;DHT22;10494;50.868;4.180;2023-03-01T10:16:22;8.00;95.60
20670;DHT22;10494;50.868;4.180;2023-03-01T10:18:59;6.70;97.70
20670;DHT22;10494;50.868;4.180;2023-03-01T10:21:27;6.60;98.90
20670;DHT22;10494;50.868;4.180;2023-03-01T10:23:53;6.90;99.80
20670;DHT22;10494;50.868;4.180;2023-03-01T10:31:46;7.20;98.50
20670;DHT22;10494;50.868;4.180;2023-03-01T10:34:28;6.90;98.20
20670;DHT22;10494;50.868;4.180;2023-03-01T10:36:56;6.40;99.50
20670;DHT22;10494;50.868;4.180;2023-03-01T10:39:26;6.60;99.80
20670;DHT22;10494;50.868;4.180;2023-03-01T10:44:43;7.50;98.10
20670;DHT22;10494;50.868;4.180;2023-03-01T10:47:21;7.30;98.50
20670;DHT22;10494;50.868;4.180;2023-03-01T10:49:58;6.30;99.90
20670;DHT22;10494;50.868;4.180;2023-03-01T10:52:33;5.90;99.90
20670;DHT22;10494;50.868;4.180;2023-03-01T10:55:49;5.90;99.90
20670;DHT22;10494;50.868;4.180;2023-03-01T10:58:07;6.60;99.90
20670;DHT22;10494;50.868;4.180;2023-03-01T11:00:32;7.70;99.80
20670;DHT22;10494;50.868;4.180;2023-03-01T11:05:25;6.90;98.40
20670;DHT22;10494;50.868;4.180;2023-03-01T11:07:55;6.30;99.90
20670;DHT22;10494;50.868;4.180;2023-03-01T11:10:26;6.40;99.90
20670;DHT22;10494;50.868;4.180;2023-03-01T11:12:52;7.00;99.90
20670;DHT22;10494;50.868;4.180;2023-03-01T11:15:22;7.80;98.50
20670;DHT22;10494;50.868;4.180;2023-03-01T11:17:49;8.40;96.70
20670;DHT22;10494;50.868;4.180;2023-03-01T11:20:29;8.70;96.70
20670;DHT22;10494;50.868;4.180;2023-03-01T11:22:59;7.10;97.20
20670;DHT22;10494;50.868;4.180;2023-03-01T11:25:31;6.50;99.10
20670;DHT22;10494;50.868;4.180;2023-03-01T11:27:59;5.80;99.90
20670;DHT22;10494;50.868;4.180;2023-03-01T11:36:31;5.90;99.90
20670;DHT22;10494;50.868;4.180;2023-03-01T11:39:11;5.80;99.90
20670;DHT22;10494;50.868;4.180;2023-03-01T11:41:40;5.30;99.90
20670;DHT22;10494;50.868;4.180;2023-03-01T11:44:21;5.20;99.90
20670;DHT22;10494;50.868;4.180;2023-03-01T11:47:20;5.60;99.90
20670;DHT22;10494;50.868;4.180;2023-03-01T11:57:48;6.10;99.90
20670;DHT22;10494;50.868;4.180;2023-03-01T12:03:20;6.30;99.90
20670;DHT22;10494;50.868;4.180;2023-03-01T12:26:13;6.20;99.90
20670;DHT22;10494;50.868;4.180;2023-03-01T12:42:28;6.60;99.90
20670;DHT22;10494;50.868;4.180;2023-03-01T12:45:01;6.70;99.90
20670;DHT22;10494;50.868;4.180;2023-03-01T12:50:24;6.20;99.90
20670;DHT22;10494;50.868;4.180;2023-03-01T12:52:57;6.10;99.90
20670;DHT22;10494;50.868;4.180;2023-03-01T12:55:33;6.40;99.90
20670;DHT22;10494;50.868;4.180;2023-03-01T13:01:03;6.70;99.90
20670;DHT22;10494;50.868;4.180;2023-03-01T13:09:30;6.40;99.90
20670;DHT22;10494;50.868;4.180;2023-03-01T13:11:57;6.20;99.90
20670;DHT22;10494;50.868;4.180;2023-03-01T13:16:49;6.20;99.90
20670;DHT22;10494;50.868;4.180;2023-03-01T13:19:20;6.30;99.90
20670;DHT22;10494;50.868;4.180;2023-03-01T13:21:47;6.30;99.90
20670;DHT22;10494;50.868;4.180;2023-03-01T13:24:40;6.20;99.90
20670;DHT22;10494;50.868;4.180;2023-03-01T13:29:45;6.80;99.90
20670;DHT22;10494;50.868;4.180;2023-03-01T13:32:32;6.70;99.90
20670;DHT22;10494;50.868;4.180;2023-03-01T13:35:47;6.60;99.90
20670;DHT22;10494;50.868;4.180;2023-03-01T13:37:48;6.70;99.90
20670;DHT22;10494;50.868;4.180;2023-03-01T13:42:47;6.70;98.90
20670;DHT22;10494;50.868;4.180;2023-03-01T13:47:46;6.80;97.60
20670;DHT22;10494;50.868;4.180;2023-03-01T13:50:25;6.80;98.10
20670;DHT22;10494;50.868;4.180;2023-03-01T13:53:01;7.10;97.80
20670;DHT22;10494;50.868;4.180;2023-03-01T13:55:38;7.10;97.10
20670;DHT22;10494;50.868;4.180;2023-03-01T13:58:22;6.80;96.70
20670;DHT22;10494;50.868;4.180;2023-03-01T14:01:03;6.50;97.70
20670;DHT22;10494;50.868;4.180;2023-03-01T14:03:30;6.50;98.30
20670;DHT22;10494;50.868;4.180;2023-03-01T14:06:08;6.70;98.10
20670;DHT22;10494;50.868;4.180;2023-03-01T14:08:36;7.00;97.10
20670;DHT22;10494;50.868;4.180;2023-03-01T14:16:35;6.80;97.10
20670;DHT22;10494;50.868;4.180;2023-03-01T14:19:18;7.00;98.20
20670;DHT22;10494;50.868;4.180;2023-03-01T14:21:46;7.00;97.60
20670;DHT22;10494;50.868;4.180;2023-03-01T14:24:20;7.00;98.20
20670;DHT22;10494;50.868;4.180;2023-03-01T14:26:48;6.80;96.90
20670;DHT22;10494;50.868;4.180;2023-03-01T14:29:33;6.70;96.70
20670;DHT22;10494;50.868;4.180;2023-03-01T14:32:20;6.60;96.60
20670;DHT22;10494;50.868;4.180;2023-03-01T14:34:48;6.80;97.20
20670;DHT22;10494;50.868;4.180;2023-03-01T14:37:27;6.90;97.00
20670;DHT22;10494;50.868;4.180;2023-03-01T14:39:53;7.20;96.80
20670;DHT22;10494;50.868;4.180;2023-03-01T14:42:24;7.30;96.70
20670;DHT22;10494;50.868;4.180;2023-03-01T14:44:52;7.30;97.30
20670;DHT22;10494;50.868;4.180;2023-03-01T14:47:31;7.60;97.50
20670;DHT22;10494;50.868;4.180;2023-03-01T14:50:04;7.70;97.50
20670;DHT22;10494;50.868;4.180;2023-03-01T14:52:35;7.70;96.70
20670;DHT22;10494;50.868;4.180;2023-03-01T14:55:05;7.70;96.00
20670;DHT22;10494;50.868;4.180;2023-03-01T14:57:31;7.30;96.00
20670;DHT22;10494;50.868;4.180;2023-03-01T14:59:59;7.30;96.90
20670;DHT22;10494;50.868;4.180;2023-03-01T15:02:29;7.40;96.70
20670;DHT22;10494;50.868;4.180;2023-03-01T15:04:58;7.20;96.00
20670;DHT22;10494;50.868;4.180;2023-03-01T15:07:29;7.30;96.70
20670;DHT22;10494;50.868;4.180;2023-03-01T15:09:56;7.00;95.60
20670;DHT22;10494;50.868;4.180;2023-03-01T15:12:41;7.20;97.10
20670;DHT22;10494;50.868;4.180;2023-03-01T15:17:56;7.70;96.90
20670;DHT22;10494;50.868;4.180;2023-03-01T15:20:24;7.90;96.20
20670;DHT22;10494;50.868;4.180;2023-03-01T15:22:55;7.40;95.20
20670;DHT22;10494;50.868;4.180;2023-03-01T15:25:25;7.10;95.50
20670;DHT22;10494;50.868;4.180;2023-03-01T15:27:53;7.10;96.10
20670;DHT22;10494;50.868;4.180;2023-03-01T15:30:27;7.20;96.00
20670;DHT22;10494;50.868;4.180;2023-03-01T15:33:33;7.10;97.10
20670;DHT22;10494;50.868;4.180;2023-03-01T15:38:54;7.50;97.00
20670;DHT22;10494;50.868;4.180;2023-03-01T15:41:31;7.30;95.90
20670;DHT22;10494;50.868;4.180;2023-03-01T15:43:59;7.40;96.00
20670;DHT22;10494;50.868;4.180;2023-03-01T15:46:33;7.60;96.10
20670;DHT22;10494;50.868;4.180;2023-03-01T15:49:24;7.40;95.70
20670;DHT22;10494;50.868;4.180;2023-03-01T15:51:52;7.60;95.00
20670;DHT22;10494;50.868;4.180;2023-03-01T15:54:21;7.70;95.10
20670;DHT22;10494;50.868;4.180;2023-03-01T15:56:47;7.50;95.60
20670;DHT22;10494;50.868;4.180;2023-03-01T15:59:13;7.50;96.60
20670;DHT22;10494;50.868;4.180;2023-03-01T16:01:43;7.70;97.00
20670;DHT22;10494;50.868;4.180;2023-03-01T16:04:11;7.80;97.50
20670;DHT22;10494;50.868;4.180;2023-03-01T16:06:39;7.60;98.00
20670;DHT22;10494;50.868;4.180;2023-03-01T16:09:05;7.60;98.40
20670;DHT22;10494;50.868;4.180;2023-03-01T16:11:30;7.50;97.40
20670;DHT22;10494;50.868;4.180;2023-03-01T16:13:57;7.60;95.50
20670;DHT22;10494;50.868;4.180;2023-03-01T16:16:23;7.70;95.10
20670;DHT22;10494;50.868;4.180;2023-03-01T16:18:49;7.70;94.20
20670;DHT22;10494;50.868;4.180;2023-03-01T16:21:25;7.70;94.20
20670;DHT22;10494;50.868;4.180;2023-03-01T16:23:51;7.50;94.30
20670;DHT22;10494;50.868;4.180;2023-03-01T16:26:18;7.50;95.20
20670;DHT22;10494;50.868;4.180;2023-03-01T16:28:44;7.40;95.40
20670;DHT22;10494;50.868;4.180;2023-03-01T16:31:11;7.50;95.80
20670;DHT22;10494;50.868;4.180;2023-03-01T16:33:39;7.60;95.30
20670;DHT22;10494;50.868;4.180;2023-03-01T16:36:10;7.60;95.50
20670;DHT22;10494;50.868;4.180;2023-03-01T16:38:36;7.70;95.60
20670;DHT22;10494;50.868;4.180;2023-03-01T16:41:02;7.60;95.70
20670;DHT22;10494;50.868;4.180;2023-03-01T16:43:29;7.60;95.90
20670;DHT22;10494;50.868;4.180;2023-03-01T16:45:54;7.70;95.70
20670;DHT22;10494;50.868;4.180;2023-03-01T16:48:20;7.60;95.90
20670;DHT22;10494;50.868;4.180;2023-03-01T16:50:56;7.50;96.10
20670;DHT22;10494;50.868;4.180;2023-03-01T16:53:22;7.30;96.30
20670;DHT22;10494;50.868;4.180;2023-03-01T16:55:53;7.10;96.90
20670;DHT22;10494;50.868;4.180;2023-03-01T16:58:19;6.80;97.90
20670;DHT22;10494;50.868;4.180;2023-03-01T17:00:45;6.80;98.50
20670;DHT22;10494;50.868;4.180;2023-03-01T17:03:10;6.60;98.40
20670;DHT22;10494;50.868;4.180;2023-03-01T17:05:40;6.60;98.90
20670;DHT22;10494;50.868;4.180;2023-03-01T17:08:05;6.50;99.10
20670;DHT22;10494;50.868;4.180;2023-03-01T17:10:33;6.20;99.70
20670;DHT22;10494;50.868;4.180;2023-03-01T17:12:58;6.10;99.90
20670;DHT22;10494;50.868;4.180;2023-03-01T17:15:24;6.30;99.90
20670;DHT22;10494;50.868;4.180;2023-03-01T17:17:50;6.20;99.90
20670;DHT22;10494;50.868;4.180;2023-03-01T17:20:16;6.20;99.90
20670;DHT22;10494;50.868;4.180;2023-03-01T17:22:42;6.10;99.90
20670;DHT22;10494;50.868;4.180;2023-03-01T17:25:09;6.00;99.90
20670;DHT22;10494;50.868;4.180;2023-03-01T17:27:36;5.90;99.90
20670;DHT22;10494;50.868;4.180;2023-03-01T17:30:03;6.10;99.90
20670;DHT22;10494;50.868;4.180;2023-03-01T17:32:29;6.00;99.90
20670;DHT22;10494;50.868;4.180;2023-03-01T17:34:55;6.10;99.90
20670;DHT22;10494;50.868;4.180;2023-03-01T17:37:20;6.10;99.90
20670;DHT22;10494;50.868;4.180;2023-03-01T17:39:47;6.00;99.90
20670;DHT22;10494;50.868;4.180;2023-03-01T17:42:12;5.80;99.90
20670;DHT22;10494;50.868;4.180;2023-03-01T17:44:38;5.60;99.90
20670;DHT22;10494;50.868;4.180;2023-03-01T17:47:03;5.50;99.90
20670;DHT22;10494;50.868;4.180;2023-03-01T17:49:30;5.50;99.90
20670;DHT22;10494;50.868;4.180;2023-03-01T17:51:55;5.30;99.90
20670;DHT22;10494;50.868;4.180;2023-03-01T17:54:21;5.30;99.90
20670;DHT22;10494;50.868;4.180;2023-03-01T17:56:47;5.10;99.90
20670;DHT22;10494;50.868;4.180;2023-03-01T17:59:12;5.20;99.90
20670;DHT22;10494;50.868;4.180;2023-03-01T18:01:40;5.20;99.90